Time;durP1;ratioP1;P1;durP2;ratioP2;P2;SDS_P1;SDS_P2;PMS_P1;PMS_P2;Temp;Humidity;BMP_temperature;BMP_pressure;BME280_temperature;BME280_humidity;BME280_pressure;Samples;Min_cycle;Max_cycle;Signal;HPM_P1;HPM_P2
2023/06/14 00:00:52;;;;;;;5.15;3.20;;;;;;;19.51;38.61;95113.59;6121543;23;20635;-90
2023/06/14 00:03:21;;;;;;;4.72;3.20;;;;;;;19.37;39.04;95109.75;6121055;23;20590;-89
2023/06/14 00:05:48;;;;;;;4.43;3.20;;;;;;;19.25;39.39;95110.63;6120860;23;20164;-89
2023/06/14 00:08:16;;;;;;;3.80;3.30;;;;;;;19.17;39.73;95108.47;6121090;23;20172;-91
2023/06/14 00:10:42;;;;;;;3.92;3.53;;;;;;;19.02;40.21;95104.88;6121100;23;20831;-90
2023/06/14 00:13:09;;;;;;;4.88;3.35;;;;;;;18.85;41.21;95112.72;6121182;23;20196;-89
2023/06/14 00:15:35;;;;;;;3.53;3.17;;;;;;;18.91;40.35;95109.13;6121444;23;20180;-89
2023/06/14 00:18:02;;;;;;;3.80;3.30;;;;;;;18.89;40.64;95104.16;6120545;23;20211;-90
2023/06/14 00:20:39;;;;;;;3.70;3.40;;;;;;;18.92;40.88;95108.09;6121165;23;20176;-89
2023/06/14 00:23:05;;;;;;;4.85;3.60;;;;;;;18.84;41.40;95109.31;6120776;23;20195;-89
2023/06/14 00:25:35;;;;;;;3.50;3.20;;;;;;;18.74;41.28;95106.56;6120981;23;20264;-90
2023/06/14 00:28:02;;;;;;;4.35;3.25;;;;;;;18.66;41.23;95106.19;6121043;23;20577;-89
2023/06/14 00:30:30;;;;;;;3.70;3.40;;;;;;;18.49;42.28;95101.72;6121464;23;20240;-89
2023/06/14 00:32:56;;;;;;;4.93;3.08;;;;;;;18.50;42.08;95105.09;6120771;23;20864;-89
2023/06/14 00:35:23;;;;;;;4.90;3.45;;;;;;;18.46;42.27;95104.03;6120933;23;20182;-90
2023/06/14 00:37:50;;;;;;;3.63;3.33;;;;;;;18.50;41.64;95097.28;6120923;23;20246;-89
2023/06/14 00:40:16;;;;;;;3.40;3.10;;;;;;;18.47;41.89;95101.16;6121044;23;20183;-89
2023/06/14 00:42:45;;;;;;;3.28;3.00;;;;;;;18.43;41.62;95107.88;6121016;23;20199;-89
2023/06/14 00:45:12;;;;;;;3.58;3.10;;;;;;;18.48;41.96;95104.56;6121386;23;20262;-89
2023/06/14 00:47:40;;;;;;;3.13;2.83;;;;;;;18.40;42.61;95108.34;6121257;23;20199;-92
2023/06/14 00:50:08;;;;;;;3.75;3.45;;;;;;;18.35;41.96;95105.66;6120521;23;20279;-89
2023/06/14 00:52:35;;;;;;;4.25;3.28;;;;;;;18.29;42.23;95102.19;6120525;23;20259;-89
2023/06/14 00:55:02;;;;;;;3.67;3.30;;;;;;;18.28;42.87;95105.81;6120582;23;20716;-90
2023/06/14 00:57:30;;;;;;;3.20;2.90;;;;;;;18.27;42.51;95104.25;6121123;23;20225;-89
2023/06/14 00:59:58;;;;;;;3.88;3.30;;;;;;;18.26;42.54;95107.88;6120617;23;20199;-89
2023/06/14 01:02:25;;;;;;;3.55;3.22;;;;;;;18.31;42.52;95107.16;6120618;23;20207;-89
2023/06/14 01:04:52;;;;;;;3.83;3.40;;;;;;;18.21;42.70;95107.78;6120765;23;20612;-89
2023/06/14 01:07:26;;;;;;;5.75;3.83;;;;;;;18.10;43.63;95113.84;6119733;23;20719;-89
2023/06/14 01:10:10;;;;;;;3.63;3.33;;;;;;;17.97;43.44;95113.34;6120945;23;20167;-89
2023/06/14 01:12:45;;;;;;;3.97;3.40;;;;;;;17.92;43.82;95109.63;6120956;23;20194;-89
2023/06/14 01:15:14;;;;;;;4.57;3.25;;;;;;;17.92;43.58;95114.03;6120429;23;20653;-90
2023/06/14 01:17:43;;;;;;;3.60;3.30;;;;;;;17.99;43.57;95106.09;6120977;23;20195;-89
2023/06/14 01:20:14;;;;;;;3.92;3.63;;;;;;;17.93;43.48;95106.00;6120900;23;20179;-89
2023/06/14 01:22:51;;;;;;;3.50;3.20;;;;;;;18.01;43.56;95107.44;6120102;23;20230;-89
2023/06/14 01:25:20;;;;;;;3.42;3.13;;;;;;;18.00;43.12;95103.25;6121129;23;20166;-89
2023/06/14 01:27:48;;;;;;;6.22;3.40;;;;;;;17.78;44.24;95105.72;6120480;23;20231;-89
2023/06/14 01:30:15;;;;;;;4.97;3.47;;;;;;;17.75;43.66;95100.19;6120547;23;20666;-90
2023/06/14 01:32:42;;;;;;;3.50;3.20;;;;;;;17.67;44.97;95108.38;6120747;23;20203;-89
2023/06/14 01:35:09;;;;;;;3.58;3.28;;;;;;;17.70;44.41;95097.50;6120528;23;20210;-89
2023/06/14 01:37:36;;;;;;;4.22;3.55;;;;;;;17.63;44.74;95104.63;6120487;23;20242;-88
2023/06/14 01:40:06;;;;;;;3.67;3.38;;;;;;;17.57;45.00;95099.31;6120255;23;20536;-89
2023/06/14 01:42:35;;;;;;;5.30;3.75;;;;;;;17.53;44.76;95097.41;6119399;23;20710;-90
2023/06/14 01:45:02;;;;;;;3.97;3.35;;;;;;;17.59;44.71;95099.88;6120745;23;20214;-89
2023/06/14 01:47:30;;;;;;;4.47;3.30;;;;;;;17.55;45.07;95093.53;6121208;23;20176;-89
2023/06/14 01:49:56;;;;;;;3.88;3.33;;;;;;;17.51;44.88;95089.81;6120409;23;20175;-90
2023/06/14 01:52:24;;;;;;;3.53;3.22;;;;;;;17.48;45.10;95092.13;6120556;23;20198;-89
2023/06/14 01:54:50;;;;;;;3.55;3.25;;;;;;;17.37;45.76;95087.72;6120019;23;20670;-90
2023/06/14 01:57:18;;;;;;;3.85;3.33;;;;;;;17.38;45.12;95091.91;6120309;23;20520;-89
2023/06/14 01:59:48;;;;;;;4.13;3.72;;;;;;;17.36;45.64;95083.53;6120496;23;20201;-89
2023/06/14 02:02:15;;;;;;;3.42;3.13;;;;;;;17.39;45.46;95090.88;6120688;23;20566;-90
2023/06/14 02:04:41;;;;;;;3.88;3.58;;;;;;;17.42;45.33;95091.22;6120351;23;20398;-89
2023/06/14 02:07:14;;;;;;;4.22;3.70;;;;;;;17.35;45.70;95094.97;6120063;23;20175;-89
2023/06/14 02:09:41;;;;;;;3.50;3.20;;;;;;;17.38;45.53;95089.31;6120207;23;20648;-90
2023/06/14 02:12:08;;;;;;;4.70;3.42;;;;;;;17.41;45.60;95088.84;6120260;23;20195;-89
2023/06/14 02:14:36;;;;;;;4.15;3.58;;;;;;;17.48;45.12;95089.50;6120629;23;20180;-89
2023/06/14 02:17:02;;;;;;;3.78;3.38;;;;;;;17.46;45.16;95092.34;6120537;23;20198;-89
2023/06/14 02:19:28;;;;;;;5.28;3.22;;;;;;;17.41;45.22;95097.44;6120563;23;20746;-91
2023/06/14 02:21:55;;;;;;;4.05;3.65;;;;;;;17.31;45.84;95088.66;6120504;23;20518;-89
2023/06/14 02:24:23;;;;;;;5.40;3.55;;;;;;;17.27;45.50;95093.53;6120794;23;20182;-89
2023/06/14 02:26:50;;;;;;;4.20;3.80;;;;;;;17.22;46.58;95089.00;6120221;23;20176;-89
2023/06/14 02:29:16;;;;;;;5.65;4.07;;;;;;;17.16;46.37;95087.31;6120502;23;20207;-89
2023/06/14 02:31:46;;;;;;;5.85;3.70;;;;;;;17.23;45.95;95088.00;6119789;23;20182;-89
2023/06/14 02:34:13;;;;;;;4.75;3.35;;;;;;;17.21;45.71;95084.03;6120521;23;20210;-89
2023/06/14 02:36:45;;;;;;;4.15;3.63;;;;;;;17.18;46.15;95087.09;6120258;23;20180;-89
2023/06/14 02:39:12;;;;;;;4.03;3.25;;;;;;;17.09;46.81;95088.47;6119857;23;20180;-89
2023/06/14 02:41:38;;;;;;;4.10;3.70;;;;;;;17.07;46.47;95090.50;6119411;23;20178;-89
2023/06/14 02:44:05;;;;;;;4.65;3.70;;;;;;;16.91;46.59;95100.59;6119993;23;20539;-90
2023/06/14 02:46:32;;;;;;;4.50;3.20;;;;;;;16.92;46.01;95096.19;6120129;23;20221;-89
2023/06/14 02:49:00;;;;;;;3.60;3.30;;;;;;;16.90;46.41;95096.41;6120329;23;20172;-89
2023/06/14 02:51:26;;;;;;;3.75;3.40;;;;;;;16.85;46.58;95101.50;6120554;23;20184;-89
2023/06/14 02:53:53;;;;;;;3.72;3.30;;;;;;;16.92;46.46;95094.38;6120352;23;20196;-89
2023/06/14 02:56:19;;;;;;;3.63;3.33;;;;;;;16.98;46.13;95084.06;6122235;23;20175;-90
2023/06/14 02:58:48;;;;;;;4.68;3.42;;;;;;;17.05;46.26;95090.75;6122595;23;20282;-89
2023/06/14 03:01:15;;;;;;;3.97;3.42;;;;;;;17.03;46.34;95097.97;6121271;23;20178;-90
2023/06/14 03:03:41;;;;;;;3.88;3.45;;;;;;;16.93;46.76;95090.72;6121915;23;20207;-89
2023/06/14 03:06:12;;;;;;;4.47;3.63;;;;;;;16.74;47.21;95096.31;6122404;23;20179;-90
2023/06/14 03:08:39;;;;;;;4.35;3.40;;;;;;;16.71;47.32;95089.75;6120950;23;20160;-89
2023/06/14 03:11:08;;;;;;;3.83;3.30;;;;;;;16.74;46.84;95093.72;6121834;23;20669;-90
2023/06/14 03:13:34;;;;;;;4.18;3.20;;;;;;;16.76;47.19;95099.44;6122098;23;20231;-89
2023/06/14 03:16:02;;;;;;;4.00;3.60;;;;;;;16.57;47.73;95106.53;6121388;23;20179;-89
2023/06/14 03:18:29;;;;;;;4.95;3.78;;;;;;;16.45;48.42;95109.13;6121988;23;20200;-89
2023/06/14 03:20:56;;;;;;;4.05;3.50;;;;;;;16.36;48.80;95105.28;6121945;23;20535;-89
2023/06/14 03:23:25;;;;;;;4.05;3.60;;;;;;;16.28;48.95;95112.63;6121795;23;20574;-89
2023/06/14 03:25:51;;;;;;;3.80;3.50;;;;;;;16.35;48.20;95116.72;6121931;23;20180;-89
2023/06/14 03:28:18;;;;;;;3.50;3.22;;;;;;;16.40;48.58;95118.63;6122099;23;20450;-90
2023/06/14 03:30:45;;;;;;;5.53;3.55;;;;;;;16.51;48.59;95112.66;6121173;23;20177;-89
2023/06/14 03:33:11;;;;;;;4.40;3.50;;;;;;;16.61;48.44;95117.28;6121458;23;20746;-89
2023/06/14 03:35:38;;;;;;;4.00;3.50;;;;;;;16.65;48.27;95121.06;6122475;23;20203;-89
2023/06/14 03:38:05;;;;;;;3.80;3.50;;;;;;;16.64;48.51;95122.84;6122355;23;20205;-89
2023/06/14 03:40:32;;;;;;;3.55;3.25;;;;;;;16.61;48.56;95123.28;6121682;23;20175;-89
2023/06/14 03:42:59;;;;;;;4.68;3.88;;;;;;;16.68;48.38;95111.00;6122041;23;20218;-88
2023/06/14 03:45:26;;;;;;;6.38;4.03;;;;;;;16.56;49.44;95130.94;6121155;23;20194;-89
2023/06/14 03:47:53;;;;;;;4.13;3.72;;;;;;;16.53;49.05;95126.22;6120824;23;20179;-89
2023/06/14 03:50:19;;;;;;;5.15;3.88;;;;;;;16.58;49.39;95121.13;6121312;23;20176;-89
2023/06/14 03:52:46;;;;;;;4.32;3.83;;;;;;;16.68;49.11;95125.81;6120766;23;20199;-89
2023/06/14 03:55:15;;;;;;;8.10;3.63;;;;;;;16.80;48.83;95132.59;6121343;23;20299;-89
2023/06/14 03:57:43;;;;;;;8.23;4.30;;;;;;;16.71;49.54;95139.16;6121884;23;20175;-89
2023/06/14 04:00:12;;;;;;;4.78;4.32;;;;;;;16.69;49.45;95135.19;6121887;23;20202;-88
2023/06/14 04:02:39;;;;;;;4.60;4.10;;;;;;;16.71;49.26;95136.56;6122599;23;20231;-89
2023/06/14 04:05:08;;;;;;;4.07;3.67;;;;;;;16.79;49.01;95144.00;6121595;23;20187;-88
2023/06/14 04:07:39;;;;;;;7.57;3.97;;;;;;;16.89;49.00;95138.25;6120910;23;20776;-88
2023/06/14 04:10:07;;;;;;;4.47;4.07;;;;;;;16.94;49.28;95143.53;6122594;23;20163;-88
2023/06/14 04:12:33;;;;;;;6.75;4.38;;;;;;;17.02;48.83;95143.22;6122418;23;20206;-88
2023/06/14 04:15:01;;;;;;;5.38;4.28;;;;;;;17.02;48.55;95151.00;6122559;23;20182;-88
2023/06/14 04:17:28;;;;;;;6.90;4.40;;;;;;;17.02;49.29;95155.41;6122744;23;20182;-88
2023/06/14 04:19:54;;;;;;;7.03;4.22;;;;;;;17.03;49.90;95163.00;6121755;23;20199;-88
2023/06/14 04:22:22;;;;;;;8.95;4.15;;;;;;;17.06;49.61;95166.97;6122789;23;20663;-88
2023/06/14 04:24:49;;;;;;;4.97;4.10;;;;;;;17.10;49.75;95161.09;6122343;23;20182;-88
2023/06/14 04:27:21;;;;;;;4.60;4.20;;;;;;;17.18;49.46;95173.72;6121430;23;20266;-88
2023/06/14 04:29:49;;;;;;;4.40;3.75;;;;;;;17.20;49.88;95163.91;6121359;23;20246;-88
2023/06/14 04:32:18;;;;;;;6.22;4.00;;;;;;;17.34;49.29;95171.44;6121502;23;20303;-88
2023/06/14 04:34:49;;;;;;;6.15;4.18;;;;;;;17.40;49.32;95173.94;6120893;23;20523;-88
2023/06/14 04:37:17;;;;;;;5.30;4.07;;;;;;;17.51;48.46;95167.16;6121024;23;20164;-88
2023/06/14 04:39:44;;;;;;;8.48;4.20;;;;;;;17.56;48.17;95173.22;6121481;23;20211;-89
2023/06/14 04:42:13;;;;;;;5.22;4.10;;;;;;;17.56;48.38;95169.84;6121463;23;20199;-88
2023/06/14 04:44:39;;;;;;;4.63;4.10;;;;;;;17.63;48.43;95174.91;6121334;23;20267;-88
2023/06/14 04:47:14;;;;;;;9.55;4.20;;;;;;;17.74;48.13;95176.72;6121703;23;20178;-88
2023/06/14 04:49:42;;;;;;;7.22;4.35;;;;;;;17.77;48.54;95176.28;6120656;23;20174;-89
2023/06/14 04:52:10;;;;;;;7.00;3.90;;;;;;;17.90;47.80;95174.19;6120231;23;20203;-88
2023/06/14 04:54:37;;;;;;;6.75;4.22;;;;;;;17.97;48.01;95176.66;6119392;23;20180;-88
2023/06/14 04:57:04;;;;;;;5.20;3.83;;;;;;;18.06;46.70;95174.50;6117144;23;20183;-88
2023/06/14 04:59:33;;;;;;;4.95;4.15;;;;;;;18.09;46.53;95174.78;6120021;23;20274;-88
2023/06/14 05:02:00;;;;;;;4.57;3.83;;;;;;;18.16;45.45;95182.47;6120423;23;20176;-89
2023/06/14 05:04:27;;;;;;;4.80;3.53;;;;;;;18.13;44.57;95185.53;6120726;23;20183;-89
2023/06/14 05:06:55;;;;;;;7.63;3.90;;;;;;;18.16;44.26;95180.66;6120076;23;20190;-89
2023/06/14 05:09:22;;;;;;;4.70;3.50;;;;;;;18.16;43.72;95188.47;6120509;23;20186;-89
2023/06/14 05:11:50;;;;;;;4.63;3.35;;;;;;;18.12;43.52;95183.97;6118571;23;20175;-90
2023/06/14 05:14:17;;;;;;;5.00;3.75;;;;;;;18.15;43.19;95188.72;6118274;23;20172;-88
2023/06/14 05:16:44;;;;;;;3.97;3.60;;;;;;;18.12;43.44;95199.59;6118322;23;20246;-89
2023/06/14 05:19:11;;;;;;;3.63;3.25;;;;;;;18.25;43.61;95186.31;6120746;23;20222;-89
2023/06/14 05:21:37;;;;;;;4.32;3.80;;;;;;;18.23;43.15;95194.34;6120468;23;20180;-90
2023/06/14 05:24:06;;;;;;;3.70;3.33;;;;;;;18.26;43.66;95201.72;6120887;23;20195;-90
2023/06/14 05:26:33;;;;;;;3.50;3.20;;;;;;;18.22;44.45;95205.00;6120416;23;20682;-89
2023/06/14 05:29:01;;;;;;;6.07;3.33;;;;;;;18.19;43.48;95201.03;6120746;23;20250;-90
2023/06/14 05:31:28;;;;;;;4.38;3.20;;;;;;;18.07;43.49;95208.13;6120401;23;20186;-90
2023/06/14 05:33:55;;;;;;;3.72;3.30;;;;;;;18.09;43.82;95203.44;6120416;23;20225;-88
2023/06/14 05:36:22;;;;;;;4.47;3.80;;;;;;;18.18;44.04;95206.50;6120712;23;20185;-89
2023/06/14 05:38:57;;;;;;;5.40;3.50;;;;;;;18.28;43.50;95199.63;6120981;23;20246;-90
2023/06/14 05:41:30;;;;;;;4.68;3.70;;;;;;;18.41;43.20;95203.00;6120380;23;20175;-90
2023/06/14 05:44:07;;;;;;;9.10;3.90;;;;;;;18.50;43.27;95202.38;6120609;23;20202;-90
2023/06/14 05:46:33;;;;;;;6.93;3.90;;;;;;;18.54;43.40;95203.47;6120968;23;20254;-89
2023/06/14 05:49:01;;;;;;;4.45;3.53;;;;;;;18.55;43.02;95205.06;6121106;23;20171;-89
2023/06/14 05:51:28;;;;;;;4.25;3.95;;;;;;;18.56;42.56;95205.84;6120301;23;20176;-89
2023/06/14 05:53:56;;;;;;;5.20;4.28;;;;;;;18.63;43.18;95206.53;6120560;23;20868;-89
2023/06/14 05:56:22;;;;;;;4.63;3.53;;;;;;;18.72;42.81;95205.09;6120564;23;20484;-90
2023/06/14 05:58:50;;;;;;;5.38;3.92;;;;;;;18.56;43.11;95205.84;6120134;23;20671;-90
2023/06/14 06:01:17;;;;;;;4.65;3.55;;;;;;;18.46;43.23;95203.88;6121272;23;20172;-90
2023/06/14 06:03:46;;;;;;;6.72;3.83;;;;;;;18.52;42.93;95205.53;6120760;23;20227;-90
2023/06/14 06:06:24;;;;;;;6.10;3.75;;;;;;;18.67;42.86;95202.41;6120447;23;20713;-90
2023/06/14 06:08:51;;;;;;;5.28;3.38;;;;;;;18.65;42.92;95209.69;6120968;23;20608;-90
2023/06/14 06:11:18;;;;;;;3.63;3.30;;;;;;;18.69;42.83;95210.78;6120914;23;20207;-90
2023/06/14 06:13:44;;;;;;;6.15;3.45;;;;;;;18.72;42.82;95206.91;6118953;23;20195;-91
2023/06/14 06:16:12;;;;;;;5.07;3.25;;;;;;;18.70;43.32;95222.00;6120990;23;20256;-91
2023/06/14 06:18:43;;;;;;;4.32;3.33;;;;;;;18.82;42.84;95222.75;6120694;23;20186;-90
2023/06/14 06:21:10;;;;;;;7.82;4.15;;;;;;;18.89;42.42;95216.34;6120597;23;20250;-89
2023/06/14 06:23:36;;;;;;;8.27;4.50;;;;;;;19.05;42.71;95216.59;6120871;23;20228;-90
2023/06/14 06:26:03;;;;;;;6.82;3.80;;;;;;;19.14;42.69;95220.38;6120659;23;20305;-89
2023/06/14 06:28:29;;;;;;;4.45;3.72;;;;;;;19.28;42.11;95221.63;6120735;23;20262;-89
2023/06/14 06:30:56;;;;;;;22.05;18.17;;;;;;;19.31;41.79;95216.72;6121434;23;20175;-90
2023/06/14 06:33:33;;;;;;;5.53;4.22;;;;;;;19.17;41.53;95225.91;6122550;23;20568;-91
2023/06/14 06:36:11;;;;;;;6.70;4.78;;;;;;;19.21;41.33;95234.06;6124044;23;20174;-92
2023/06/14 06:38:37;;;;;;;4.60;3.53;;;;;;;19.29;41.50;95224.00;6123914;23;20179;-89
2023/06/14 06:41:04;;;;;;;6.20;3.28;;;;;;;19.32;41.48;95228.72;6122403;23;20503;-90
2023/06/14 06:43:33;;;;;;;5.47;3.20;;;;;;;19.40;41.55;95222.31;6123256;23;20206;-90
2023/06/14 06:46:02;;;;;;;3.45;3.05;;;;;;;19.41;41.66;95228.34;6122512;23;20212;-89
2023/06/14 06:48:42;;;;;;;5.40;3.40;;;;;;;19.48;41.34;95234.16;6122331;23;20182;-90
2023/06/14 06:51:12;;;;;;;3.63;3.20;;;;;;;19.59;41.11;95233.31;6122868;23;20211;-90
2023/06/14 06:53:53;;;;;;;6.47;3.63;;;;;;;19.72;41.29;95245.22;6122434;23;20687;-90
2023/06/14 06:56:22;;;;;;;3.97;3.20;;;;;;;19.67;41.26;95236.28;6123075;23;20163;-90
2023/06/14 06:59:07;;;;;;;7.15;3.35;;;;;;;19.78;41.73;95236.44;6122868;23;20171;-90
2023/06/14 07:01:36;;;;;;;5.07;3.30;;;;;;;19.83;41.43;95250.34;6122355;23;20250;-90
2023/06/14 07:04:16;;;;;;;5.18;3.15;;;;;;;19.90;40.83;95237.88;6122927;23;20255;-90
2023/06/14 07:07:28;;;;;;;10.75;3.97;;;;;;;19.98;40.48;95231.47;6123244;23;20164;-91
2023/06/14 07:09:54;;;;;;;11.25;5.05;;;;;;;20.18;40.51;95234.31;6119875;23;20176;-92
2023/06/14 07:21:16;;;;;;;;;;;;;;;;;;;;;
2023/06/14 07:23:50;;;;;;;7.57;3.17;;;;;;;20.45;40.33;95250.03;6123479;23;20191;-91
2023/06/14 07:26:16;;;;;;;4.82;3.58;;;;;;;20.41;40.34;95243.72;6124466;23;20176;-91
2023/06/14 07:28:56;;;;;;;4.53;3.10;;;;;;;20.45;40.38;95251.84;6124103;23;20738;-91
2023/06/14 07:31:34;;;;;;;4.40;3.28;;;;;;;20.49;40.52;95255.56;6125432;23;20623;-92
2023/06/14 07:39:29;;;;;;;5.22;3.28;;;;;;;20.64;39.36;95258.31;6153660;23;20194;-89
2023/06/14 07:41:59;;;;;;;3.20;2.88;;;;;;;20.83;39.27;95259.56;6151802;23;20155;-89
2023/06/14 07:44:39;;;;;;;3.20;2.90;;;;;;;20.97;39.28;95257.34;6153759;23;20189;-89
2023/06/14 07:47:06;;;;;;;9.25;3.40;;;;;;;21.04;38.35;95263.13;6153573;23;20563;-91
2023/06/14 07:52:22;;;;;;;4.72;3.00;;;;;;;21.19;37.93;95265.06;6151024;23;20284;-90
2023/06/14 07:54:56;;;;;;;5.32;3.53;;;;;;;21.38;38.12;95267.09;6152925;23;20229;-90
2023/06/14 07:57:39;;;;;;;3.42;2.80;;;;;;;21.30;37.42;95254.47;6152386;23;20166;-89
2023/06/14 08:00:07;;;;;;;3.22;2.72;;;;;;;21.28;37.66;95263.63;6153484;23;20261;-89
2023/06/14 08:02:41;;;;;;;3.15;2.95;;;;;;;21.49;37.08;95267.97;6156094;23;20251;-89
2023/06/14 08:05:28;;;;;;;3.38;3.03;;;;;;;21.75;36.96;95255.78;6153707;23;20603;-91
2023/06/14 08:07:57;;;;;;;5.18;3.15;;;;;;;21.78;36.46;95251.88;6152893;23;20182;-90
2023/06/14 08:10:40;;;;;;;3.90;2.75;;;;;;;21.85;36.01;95255.06;6152540;23;20679;-90
2023/06/14 08:13:09;;;;;;;3.03;2.70;;;;;;;21.86;35.33;95259.25;6151518;23;20898;-90
2023/06/14 08:15:35;;;;;;;5.18;2.95;;;;;;;21.88;36.04;95249.31;6153302;23;20680;-90
2023/06/14 08:18:02;;;;;;;3.38;2.70;;;;;;;22.11;35.49;95261.25;6153734;23;20225;-90
2023/06/14 08:20:41;;;;;;;7.60;3.50;;;;;;;22.30;35.18;95252.66;6154871;23;20226;-90
2023/06/14 08:23:08;;;;;;;7.22;3.20;;;;;;;22.21;34.44;95258.66;6152312;23;20201;-90
2023/06/14 08:25:35;;;;;;;3.15;2.70;;;;;;;22.44;35.06;95257.41;6152412;23;20171;-89
2023/06/14 08:28:24;;;;;;;4.55;2.95;;;;;;;22.61;34.11;95257.97;6151646;23;20182;-90
2023/06/14 08:30:55;;;;;;;5.95;2.80;;;;;;;22.74;33.73;95265.34;6151743;23;20166;-89
2023/06/14 08:33:22;;;;;;;4.30;2.90;;;;;;;22.82;32.72;95266.69;6153460;23;20195;-91
2023/06/14 08:38:56;;;;;;;3.05;2.67;;;;;;;22.99;31.17;95269.88;6136394;23;20262;-90
2023/06/14 08:41:40;;;;;;;5.28;2.72;;;;;;;22.97;31.36;95271.97;6152651;23;20274;-90
2023/06/14 08:44:23;;;;;;;3.08;2.78;;;;;;;23.12;32.12;95271.19;6153371;23;20206;-90
2023/06/14 08:49:39;;;;;;;6.60;2.88;;;;;;;23.20;31.99;95274.06;6150364;23;20174;-92
2023/06/14 08:55:24;;;;;;;;;;;;;;;;;;;;;
2023/06/14 08:58:01;;;;;;;2.85;2.53;;;;;;;23.49;31.07;95271.69;6154775;23;20171;-89
2023/06/14 09:00:34;;;;;;;4.45;3.13;;;;;;;23.62;30.32;95275.66;6154182;23;20178;-90
2023/06/14 09:03:12;;;;;;;5.57;2.67;;;;;;;23.91;30.44;95273.22;6152525;23;20658;-90
2023/06/14 09:05:55;;;;;;;5.35;3.00;;;;;;;23.99;30.05;95273.47;6154629;23;20202;-90
2023/06/14 09:08:40;;;;;;;5.43;2.50;;;;;;;24.05;29.83;95268.97;6152135;23;20163;-93
2023/06/14 09:11:07;;;;;;;3.10;2.80;;;;;;;23.97;29.58;95270.31;6154578;23;20197;-90
2023/06/14 09:13:54;;;;;;;2.80;2.53;;;;;;;23.99;29.20;95275.28;6153916;23;20570;-90
2023/06/14 09:16:56;;;;;;;4.25;2.83;;;;;;;24.18;30.33;95275.50;6153560;23;20176;-91
2023/06/14 09:20:05;;;;;;;4.93;2.72;;;;;;;24.36;29.80;95270.44;6150536;23;20221;-90
2023/06/14 09:35:48;;;;;;;4.40;3.03;;;;;;;24.48;29.00;95283.28;6152479;23;20572;-89
2023/06/14 09:38:15;;;;;;;6.72;3.00;;;;;;;24.53;29.98;95285.09;6145611;23;20507;-91
2023/06/14 09:40:42;;;;;;;8.93;2.92;;;;;;;24.74;29.58;95276.03;6151306;23;20670;-90
2023/06/14 09:43:29;;;;;;;4.25;2.83;;;;;;;24.88;29.56;95287.53;6120628;23;20206;-90
2023/06/14 09:46:02;;;;;;;4.05;2.72;;;;;;;25.00;29.26;95298.56;6122685;23;20172;-89
2023/06/14 09:49:02;;;;;;;2.90;2.70;;;;;;;24.95;28.83;95289.88;6124254;23;20804;-90
2023/06/14 09:51:34;;;;;;;3.58;2.58;;;;;;;24.75;30.01;95293.41;6122315;23;20160;-91
2023/06/14 09:54:05;;;;;;;5.90;3.10;;;;;;;24.89;30.16;95297.00;6121486;23;20192;-90
2023/06/14 09:56:43;;;;;;;3.33;2.60;;;;;;;24.74;29.37;95302.38;6122003;23;20635;-90
2023/06/14 09:59:26;;;;;;;2.97;2.70;;;;;;;24.55;29.18;95298.78;6122367;23;20174;-90
2023/06/14 10:08:15;;;;;;;;;;;;;;;;;;;;;
2023/06/14 10:10:52;;;;;;;4.70;3.60;;;;;;;25.43;28.31;95288.19;6125981;23;20155;-89
2023/06/14 10:16:59;;;;;;;5.10;4.55;;;;;;;25.57;28.59;95283.88;5981479;23;20193;-91
2023/06/14 10:22:27;;;;;;;6.45;3.60;;;;;;;25.90;29.32;95287.50;6129082;23;20265;-89
2023/06/14 10:25:00;;;;;;;4.20;3.03;;;;;;;26.05;28.56;95276.78;6128498;23;20175;-91
2023/06/14 10:27:30;;;;;;;5.03;3.28;;;;;;;26.29;28.17;95279.44;6129998;23;20162;-88
2023/06/14 10:30:27;;;;;;;3.15;2.90;;;;;;;26.57;28.49;95280.41;6125531;23;20164;-90
2023/06/14 10:33:15;;;;;;;4.63;2.95;;;;;;;26.61;27.53;95277.97;6132838;23;20183;-89
2023/06/14 10:35:49;;;;;;;4.15;3.75;;;;;;;26.60;27.65;95274.53;6131717;23;20179;-88
2023/06/14 10:38:16;;;;;;;4.20;3.20;;;;;;;26.25;28.44;95282.91;6129145;23;20152;-88
2023/06/14 10:40:53;;;;;;;3.40;3.10;;;;;;;25.47;28.85;95279.44;6123319;23;20207;-87
2023/06/14 10:43:23;;;;;;;4.47;3.40;;;;;;;25.39;29.04;95276.66;6124843;23;20214;-87
2023/06/14 10:46:16;;;;;;;5.57;2.85;;;;;;;25.66;29.48;95276.16;6123877;23;20171;-88
2023/06/14 10:48:44;;;;;;;4.72;3.08;;;;;;;25.92;28.68;95284.59;6123192;23;20234;-87
2023/06/14 10:51:20;;;;;;;29.35;26.67;;;;;;;26.20;28.19;95272.38;6123787;23;20179;-87
2023/06/14 10:53:48;;;;;;;9.25;7.25;;;;;;;26.26;27.40;95279.19;6123511;23;20191;-88
2023/06/14 10:56:31;;;;;;;4.55;3.30;;;;;;;26.35;27.78;95280.19;6123680;23;20179;-87
2023/06/14 10:58:58;;;;;;;5.32;3.30;;;;;;;26.39;27.93;95276.66;6122314;23;20221;-88
2023/06/14 11:01:37;;;;;;;5.93;3.15;;;;;;;26.26;28.33;95276.56;6123796;23;20226;-88
2023/06/14 11:04:11;;;;;;;4.38;3.35;;;;;;;26.25;28.32;95278.41;6123025;23;20199;-89
2023/06/14 11:07:16;;;;;;;3.67;3.38;;;;;;;26.64;27.71;95272.13;6122869;23;20171;-89
2023/06/14 11:10:04;;;;;;;4.90;3.55;;;;;;;26.55;27.15;95272.00;6123702;23;20782;-88
2023/06/14 11:12:46;;;;;;;3.60;3.20;;;;;;;26.61;27.51;95272.69;6123970;23;20523;-89
2023/06/14 11:15:13;;;;;;;4.97;3.45;;;;;;;26.64;27.43;95270.28;6122582;23;20180;-90
2023/06/14 11:17:39;;;;;;;3.30;3.00;;;;;;;26.77;27.41;95271.41;6122419;23;20182;-89
2023/06/14 11:20:09;;;;;;;4.13;3.15;;;;;;;26.89;27.49;95258.56;6121433;23;20669;-88
2023/06/14 11:22:47;;;;;;;13.80;12.55;;;;;;;26.67;27.11;95266.28;6121879;23;20195;-90
2023/06/14 11:25:14;;;;;;;15.98;14.40;;;;;;;26.31;27.37;95274.66;6122573;23;20155;-89
2023/06/14 11:27:43;;;;;;;4.85;3.35;;;;;;;26.29;26.40;95279.44;6122223;23;20176;-88
2023/06/14 11:30:11;;;;;;;5.97;3.50;;;;;;;26.46;26.65;95274.47;6121499;23;20178;-88
2023/06/14 11:32:37;;;;;;;3.72;3.30;;;;;;;26.54;25.95;95264.34;6122180;23;20582;-89
2023/06/14 11:35:14;;;;;;;4.97;3.80;;;;;;;26.52;25.81;95275.19;6120851;23;20234;-88
2023/06/14 11:37:43;;;;;;;3.33;3.03;;;;;;;26.77;25.66;95260.84;6108235;23;20530;-87
2023/06/14 11:40:11;;;;;;;3.55;2.80;;;;;;;26.75;25.44;95261.13;6115581;23;20715;-87
2023/06/14 11:42:38;;;;;;;11.57;4.05;;;;;;;26.92;25.37;95262.50;6116061;23;20215;-88
2023/06/14 11:45:17;;;;;;;4.40;3.20;;;;;;;27.03;24.39;95256.00;6116978;23;20266;-89
2023/06/14 11:47:44;;;;;;;3.55;2.80;;;;;;;27.08;24.81;95275.22;6117053;23;20171;-89
2023/06/14 11:50:11;;;;;;;3.58;3.28;;;;;;;27.26;24.83;95255.09;6117686;23;20185;-88
2023/06/14 11:52:38;;;;;;;4.57;3.22;;;;;;;27.58;25.09;95256.19;6115439;23;20191;-89
2023/06/14 11:55:05;;;;;;;3.92;3.55;;;;;;;27.35;23.98;95256.00;6117643;23;20231;-89
2023/06/14 11:57:41;;;;;;;4.63;3.30;;;;;;;27.13;23.88;95256.63;6118288;23;20230;-91
2023/06/14 12:00:13;;;;;;;4.38;3.63;;;;;;;26.67;24.80;95248.56;6120906;23;20702;-89
2023/06/14 12:02:41;;;;;;;5.88;4.35;;;;;;;26.80;24.44;95253.13;6121598;23;20202;-89
2023/06/14 12:05:10;;;;;;;4.45;3.65;;;;;;;27.14;24.56;95247.63;6121343;23;20756;-88
2023/06/14 12:07:53;;;;;;;4.07;3.33;;;;;;;27.04;24.73;95252.28;6120177;23;20190;-90
2023/06/14 12:10:20;;;;;;;4.45;3.33;;;;;;;26.87;24.70;95254.63;6121108;23;20251;-88
2023/06/14 12:12:46;;;;;;;4.95;2.97;;;;;;;26.92;24.73;95255.34;6121480;23;20201;-88
2023/06/14 12:15:13;;;;;;;3.78;3.20;;;;;;;26.91;25.19;95256.44;6121162;23;20234;-88
2023/06/14 12:17:50;;;;;;;3.40;3.10;;;;;;;26.96;24.36;95258.22;6121412;23;20203;-89
2023/06/14 12:20:19;;;;;;;3.42;3.05;;;;;;;27.01;24.31;95256.28;6120970;23;20174;-89
2023/06/14 12:25:34;;;;;;;3.50;3.20;;;;;;;27.47;24.78;95250.25;6120023;23;20262;-88
2023/06/14 12:28:06;;;;;;;4.93;3.22;;;;;;;27.57;24.53;95249.28;6120695;23;20171;-88
2023/06/14 12:30:47;;;;;;;6.03;3.33;;;;;;;27.76;24.50;95245.53;6121634;23;20163;-88
2023/06/14 12:33:20;;;;;;;4.93;3.50;;;;;;;27.55;24.20;95246.94;6117658;23;20207;-89
2023/06/14 12:35:47;;;;;;;3.63;3.30;;;;;;;27.69;24.80;95245.13;6121132;23;20626;-88
2023/06/14 12:38:15;;;;;;;8.00;3.40;;;;;;;27.70;25.33;95243.28;6121085;23;20210;-89
2023/06/14 12:40:51;;;;;;;5.90;3.00;;;;;;;27.37;25.37;95240.63;6120098;23;20700;-90
2023/06/14 12:43:17;;;;;;;3.92;3.45;;;;;;;26.80;25.47;95250.50;6121481;23;20206;-89
2023/06/14 12:45:44;;;;;;;3.85;3.08;;;;;;;26.70;25.47;95248.00;6120550;23;20180;-89
2023/06/14 12:48:10;;;;;;;4.38;3.13;;;;;;;26.82;25.24;95247.56;6120889;23;20179;-89